Time;durP1;ratioP1;P1;durP2;ratioP2;P2;SDS_P1;SDS_P2;PMS_P1;PMS_P2;Temp;Humidity;BMP_temperature;BMP_pressure;BME280_temperature;BME280_humidity;BME280_pressure;Samples;Min_cycle;Max_cycle;Signal;HPM_P1;HPM_P2
2021/09/17 00:00:42;;;;;;;8.55;4.22;;;12.60;91.60;;;;;;4949471;28;20042;-68
2021/09/17 00:03:08;;;;;;;4.22;2.70;;;12.60;92.10;;;;;;4948582;28;20103;-68
2021/09/17 00:05:33;;;;;;;4.57;2.92;;;12.50;91.40;;;;;;4949038;28;20055;-68
2021/09/17 00:07:59;;;;;;;4.35;2.78;;;12.50;91.20;;;;;;4946673;28;20038;-68
2021/09/17 00:10:25;;;;;;;4.80;3.22;;;12.40;91.20;;;;;;4944711;28;20066;-69
2021/09/17 00:12:51;;;;;;;5.38;2.70;;;12.40;91.40;;;;;;4947204;28;20027;-69
2021/09/17 00:15:16;;;;;;;4.22;2.53;;;12.30;91.00;;;;;;4945131;28;20034;-69
2021/09/17 00:17:43;;;;;;;4.03;2.90;;;12.30;91.50;;;;;;4943357;28;20046;-69
2021/09/17 00:20:11;;;;;;;5.75;2.85;;;12.30;91.60;;;;;;4945890;28;20505;-68
2021/09/17 00:22:36;;;;;;;6.10;3.17;;;12.20;91.50;;;;;;4910796;28;1445367;-69
2021/09/17 00:25:03;;;;;;;5.43;3.00;;;12.10;91.90;;;;;;4950145;28;20031;-69
2021/09/17 00:27:29;;;;;;;8.60;3.38;;;12.10;92.00;;;;;;4950418;28;20034;-69
2021/09/17 00:29:55;;;;;;;5.10;3.55;;;12.10;91.90;;;;;;4945650;28;20027;-68
2021/09/17 00:32:21;;;;;;;5.75;3.53;;;12.20;92.10;;;;;;4947466;28;20176;-69
2021/09/17 00:34:46;;;;;;;82.80;7.13;;;12.20;92.20;;;;;;4949603;28;21710;-69
2021/09/17 00:37:12;;;;;;;5.50;3.40;;;12.20;92.90;;;;;;4947636;28;20461;-69
2021/09/17 00:39:38;;;;;;;3.72;2.92;;;12.20;93.00;;;;;;4953689;28;20101;-69
2021/09/17 00:42:04;;;;;;;4.95;3.50;;;12.10;92.20;;;;;;4948141;28;20031;-69
2021/09/17 00:44:29;;;;;;;7.00;3.58;;;12.00;92.40;;;;;;4949626;28;20027;-69
2021/09/17 00:46:55;;;;;;;3.63;2.70;;;12.00;92.60;;;;;;4947787;28;20133;-69
2021/09/17 00:49:22;;;;;;;2.83;2.50;;;12.00;92.60;;;;;;4947982;28;20027;-69
2021/09/17 00:51:49;;;;;;;8.35;3.28;;;12.00;92.50;;;;;;4949227;28;20027;-69
2021/09/17 00:54:16;;;;;;;11.65;4.18;;;12.00;92.30;;;;;;4950108;28;20050;-69
2021/09/17 00:56:43;;;;;;;17.20;4.03;;;12.00;92.20;;;;;;4951337;28;20030;-69
2021/09/17 00:59:09;;;;;;;6.38;3.75;;;11.90;92.10;;;;;;4951563;28;20504;-69
2021/09/17 01:01:36;;;;;;;4.07;2.80;;;11.90;92.40;;;;;;4945023;28;20051;-69
2021/09/17 01:04:02;;;;;;;6.13;2.33;;;11.90;92.50;;;;;;4960873;28;20039;-69
2021/09/17 01:06:29;;;;;;;3.25;2.72;;;11.80;92.20;;;;;;4947698;28;20031;-69
2021/09/17 01:08:54;;;;;;;4.65;3.20;;;11.80;92.30;;;;;;4948445;28;20028;-70
2021/09/17 01:11:21;;;;;;;2.97;2.50;;;11.80;92.50;;;;;;4949653;28;20054;-69
2021/09/17 01:13:47;;;;;;;4.03;2.75;;;11.80;92.30;;;;;;4947219;28;20461;-69
2021/09/17 01:16:13;;;;;;;3.92;2.70;;;11.80;92.30;;;;;;4948458;28;20037;-69
2021/09/17 01:18:38;;;;;;;2.83;2.38;;;11.80;92.30;;;;;;4942931;28;20437;-69
2021/09/17 01:21:04;;;;;;;2.50;2.05;;;11.70;92.20;;;;;;4950154;28;20039;-69
2021/09/17 01:23:30;;;;;;;2.92;2.20;;;11.70;92.00;;;;;;4944849;28;20063;-69
2021/09/17 01:25:56;;;;;;;3.17;2.65;;;11.70;92.20;;;;;;4946621;28;20028;-69
2021/09/17 01:28:24;;;;;;;4.53;2.40;;;11.70;92.30;;;;;;4945542;28;21448;-69
2021/09/17 01:30:49;;;;;;;3.92;2.95;;;11.70;92.40;;;;;;4945244;28;20040;-69
2021/09/17 01:33:15;;;;;;;2.75;2.33;;;11.70;92.50;;;;;;4958623;28;20046;-69
2021/09/17 01:35:40;;;;;;;3.95;2.65;;;11.70;92.70;;;;;;4949942;28;20126;-70
2021/09/17 01:38:06;;;;;;;4.00;2.80;;;11.70;92.60;;;;;;4957241;28;20491;-69
2021/09/17 01:40:32;;;;;;;4.15;2.80;;;11.70;92.70;;;;;;4955654;28;21536;-69
2021/09/17 01:42:57;;;;;;;10.18;3.25;;;11.70;92.90;;;;;;4948508;28;20023;-69
2021/09/17 01:45:24;;;;;;;5.50;3.92;;;11.70;92.80;;;;;;4946992;28;20038;-69
2021/09/17 01:47:49;;;;;;;4.55;3.40;;;11.70;93.10;;;;;;4949841;28;20023;-69
2021/09/17 01:50:15;;;;;;;5.43;3.60;;;11.80;93.20;;;;;;4964468;28;20037;-70
2021/09/17 01:52:41;;;;;;;8.27;4.00;;;11.80;93.60;;;;;;4948150;28;20018;-69
2021/09/17 01:55:07;;;;;;;5.57;3.60;;;11.80;93.30;;;;;;4952473;28;20031;-69
2021/09/17 01:57:33;;;;;;;6.22;4.28;;;11.80;93.50;;;;;;4950950;28;20027;-69
2021/09/17 01:59:58;;;;;;;16.35;3.83;;;11.70;93.50;;;;;;4960142;28;20035;-69
2021/09/17 02:02:25;;;;;;;7.35;3.50;;;11.80;93.50;;;;;;4965454;28;20412;-69
2021/09/17 02:04:51;;;;;;;4.18;3.30;;;11.70;93.60;;;;;;4953264;28;20535;-69
2021/09/17 02:07:16;;;;;;;19.42;5.18;;;11.70;94.20;;;;;;4962348;28;20039;-69
2021/09/17 02:09:43;;;;;;;11.75;4.22;;;11.70;94.00;;;;;;4951781;28;20035;-69
2021/09/17 02:12:08;;;;;;;5.43;3.70;;;11.60;93.70;;;;;;4954840;28;20032;-70
2021/09/17 02:14:34;;;;;;;5.47;3.40;;;11.60;93.90;;;;;;4949217;28;20035;-69
2021/09/17 02:17:00;;;;;;;16.25;4.05;;;11.60;93.70;;;;;;4959090;28;20037;-69
2021/09/17 02:19:25;;;;;;;17.58;4.40;;;11.60;93.50;;;;;;4970505;28;20030;-70
2021/09/17 02:21:54;;;;;;;12.95;3.88;;;11.60;93.70;;;;;;4955978;28;20531;-70
2021/09/17 02:24:20;;;;;;;16.83;5.50;;;11.60;93.70;;;;;;4950237;28;20491;-69
2021/09/17 02:26:46;;;;;;;4.88;3.85;;;11.50;93.70;;;;;;4954245;28;20055;-69
2021/09/17 02:29:12;;;;;;;28.95;4.15;;;11.50;93.70;;;;;;4951552;28;20141;-70
2021/09/17 02:31:38;;;;;;;8.65;4.97;;;11.50;93.70;;;;;;4950531;28;20543;-69
2021/09/17 02:34:03;;;;;;;21.92;4.35;;;11.50;93.70;;;;;;4948486;28;20031;-69
2021/09/17 02:36:29;;;;;;;6.93;3.45;;;11.50;93.80;;;;;;4950028;28;20035;-69
2021/09/17 02:38:55;;;;;;;10.70;3.75;;;11.50;93.90;;;;;;4950171;28;20110;-69
2021/09/17 02:41:20;;;;;;;9.45;3.63;;;11.50;94.00;;;;;;4947769;28;20038;-69
2021/09/17 02:43:46;;;;;;;7.50;3.65;;;11.40;94.10;;;;;;4951478;28;20041;-69
2021/09/17 02:46:12;;;;;;;6.93;3.70;;;11.50;94.30;;;;;;4949000;28;20377;-69
2021/09/17 02:48:38;;;;;;;11.23;4.28;;;11.40;94.40;;;;;;4948303;28;20612;-70
2021/09/17 02:51:03;;;;;;;6.13;3.75;;;11.40;94.30;;;;;;4947361;28;20033;-69
2021/09/17 02:53:29;;;;;;;8.10;4.18;;;11.40;94.50;;;;;;4948535;28;20035;-69
2021/09/17 02:55:55;;;;;;;11.13;3.95;;;11.40;94.60;;;;;;4948436;28;20055;-69
2021/09/17 02:58:20;;;;;;;5.90;3.65;;;11.40;94.60;;;;;;4966422;28;20039;-69
2021/09/17 03:00:46;;;;;;;4.75;3.40;;;11.40;94.50;;;;;;4963602;28;20102;-69
2021/09/17 03:03:15;;;;;;;6.10;3.92;;;11.40;94.60;;;;;;4962207;28;20558;-69
2021/09/17 03:05:42;;;;;;;8.05;3.72;;;11.40;94.60;;;;;;4949819;28;20020;-69
2021/09/17 03:08:08;;;;;;;6.80;3.80;;;11.40;94.60;;;;;;4952419;28;20035;-69
2021/09/17 03:10:34;;;;;;;5.05;3.38;;;11.40;94.50;;;;;;4943547;28;20045;-69
2021/09/17 03:12:59;;;;;;;4.57;3.63;;;11.40;94.50;;;;;;4949963;28;20034;-69
2021/09/17 03:15:25;;;;;;;5.13;3.17;;;11.30;94.40;;;;;;4944858;28;20111;-69
2021/09/17 03:17:51;;;;;;;4.45;3.00;;;11.30;94.30;;;;;;4951083;28;20031;-69
2021/09/17 03:20:16;;;;;;;7.75;3.03;;;11.30;94.40;;;;;;4949272;28;20028;-69
2021/09/17 03:22:42;;;;;;;5.10;3.60;;;11.30;94.30;;;;;;4950248;28;20138;-69
2021/09/17 03:25:08;;;;;;;10.80;3.60;;;11.30;94.30;;;;;;4950832;28;20030;-69
2021/09/17 03:27:34;;;;;;;4.70;3.35;;;11.20;94.20;;;;;;4959441;28;20101;-69
2021/09/17 03:30:00;;;;;;;3.92;2.92;;;11.20;94.60;;;;;;4966961;28;20428;-69
2021/09/17 03:32:25;;;;;;;10.48;3.20;;;11.20;94.20;;;;;;4963849;28;20117;-69
2021/09/17 03:34:51;;;;;;;3.67;3.00;;;11.20;94.20;;;;;;4965946;28;20031;-69
2021/09/17 03:37:17;;;;;;;4.03;3.20;;;11.20;94.20;;;;;;4948604;28;20021;-69
2021/09/17 03:39:42;;;;;;;4.40;3.28;;;11.20;94.20;;;;;;4946880;28;20034;-69
2021/09/17 03:42:08;;;;;;;7.30;3.75;;;11.30;94.30;;;;;;4950843;28;20531;-69
2021/09/17 03:44:34;;;;;;;4.20;3.70;;;11.30;94.40;;;;;;4950327;28;20031;-69
2021/09/17 03:47:00;;;;;;;4.00;3.00;;;11.30;94.30;;;;;;4950600;28;20366;-69
2021/09/17 03:49:25;;;;;;;3.47;2.83;;;11.30;94.30;;;;;;4951786;28;20388;-69
2021/09/17 03:51:51;;;;;;;4.38;3.00;;;11.30;94.40;;;;;;4959880;28;20422;-69
2021/09/17 03:54:16;;;;;;;3.30;2.95;;;11.30;94.30;;;;;;4949703;28;20037;-69
2021/09/17 03:56:42;;;;;;;4.95;2.67;;;11.40;94.30;;;;;;4955645;28;20504;-69
2021/09/17 03:59:08;;;;;;;4.20;2.90;;;11.40;94.30;;;;;;4949432;28;20078;-69
2021/09/17 04:01:33;;;;;;;4.60;3.15;;;11.40;94.20;;;;;;4947181;28;20039;-69
2021/09/17 04:03:59;;;;;;;5.00;3.30;;;11.40;94.20;;;;;;4950526;28;20026;-69
2021/09/17 04:06:25;;;;;;;4.57;3.25;;;11.40;94.20;;;;;;4965028;28;20027;-69
2021/09/17 04:08:50;;;;;;;5.15;3.10;;;11.40;94.20;;;;;;4949911;28;20473;-69
2021/09/17 04:11:16;;;;;;;3.22;2.38;;;11.40;94.20;;;;;;4947685;28;20119;-69
2021/09/17 04:13:41;;;;;;;3.40;2.65;;;11.50;94.30;;;;;;4948113;28;20047;-69
2021/09/17 04:16:07;;;;;;;4.47;3.15;;;11.40;94.20;;;;;;4945332;28;20759;-69
2021/09/17 04:18:33;;;;;;;4.28;2.90;;;11.40;94.30;;;;;;4948081;28;20047;-69
2021/09/17 04:20:58;;;;;;;3.58;2.65;;;11.50;94.30;;;;;;4950415;28;20035;-69
2021/09/17 04:23:24;;;;;;;3.83;2.97;;;11.50;94.30;;;;;;4948439;28;20917;-69
2021/09/17 04:25:50;;;;;;;5.10;3.30;;;11.50;94.30;;;;;;4949975;28;20456;-69
2021/09/17 04:28:15;;;;;;;4.60;2.97;;;11.50;94.40;;;;;;4947432;28;20122;-70
2021/09/17 04:30:41;;;;;;;5.68;3.65;;;11.50;94.40;;;;;;4946705;28;20126;-69
2021/09/17 04:33:06;;;;;;;5.15;3.50;;;11.50;94.40;;;;;;4961904;28;20058;-69
2021/09/17 04:35:32;;;;;;;6.03;3.30;;;11.50;94.40;;;;;;4952205;28;20167;-69
2021/09/17 04:37:59;;;;;;;4.82;3.45;;;11.50;94.30;;;;;;4947167;28;20027;-69
2021/09/17 04:40:25;;;;;;;5.47;3.50;;;11.60;94.40;;;;;;4946565;28;20126;-69
2021/09/17 04:42:52;;;;;;;5.07;3.58;;;11.50;94.30;;;;;;4951599;28;20481;-68
2021/09/17 04:45:18;;;;;;;7.20;3.95;;;11.50;94.40;;;;;;4946647;28;20528;-69
2021/09/17 04:47:44;;;;;;;3.80;2.92;;;11.60;94.40;;;;;;4944276;28;20024;-69
2021/09/17 04:50:10;;;;;;;5.32;3.50;;;11.60;94.40;;;;;;4948278;28;20056;-69
2021/09/17 04:52:37;;;;;;;5.97;3.83;;;11.60;94.30;;;;;;4945970;28;20038;-69
2021/09/17 04:55:04;;;;;;;5.40;3.67;;;11.60;94.60;;;;;;4951397;28;20134;-69
2021/09/17 04:57:30;;;;;;;5.05;3.45;;;11.60;94.50;;;;;;4964024;28;20070;-69
2021/09/17 04:59:56;;;;;;;6.47;3.55;;;11.60;94.50;;;;;;4949567;28;20059;-69
2021/09/17 05:02:21;;;;;;;7.50;3.80;;;11.60;94.50;;;;;;4946732;28;20397;-69
2021/09/17 05:04:47;;;;;;;7.55;4.07;;;11.60;94.60;;;;;;4948739;28;20106;-69
2021/09/17 05:07:13;;;;;;;5.60;3.60;;;11.60;94.50;;;;;;4961740;28;20061;-69
2021/09/17 05:09:39;;;;;;;5.32;3.70;;;11.60;94.60;;;;;;4948438;28;20477;-69
2021/09/17 05:12:05;;;;;;;8.82;4.15;;;11.60;94.60;;;;;;4949708;29;20384;-69
2021/09/17 05:14:32;;;;;;;5.53;3.75;;;11.60;94.60;;;;;;4947485;28;20031;-69
2021/09/17 05:16:57;;;;;;;8.25;3.95;;;11.60;94.70;;;;;;4948980;28;20090;-69
2021/09/17 05:19:25;;;;;;;7.78;3.88;;;11.60;94.80;;;;;;4962792;28;20031;-69
2021/09/17 05:21:52;;;;;;;6.47;3.75;;;11.60;94.80;;;;;;4946228;28;20031;-69
2021/09/17 05:24:17;;;;;;;7.57;4.47;;;11.60;94.80;;;;;;4947177;28;20055;-69
2021/09/17 05:26:43;;;;;;;7.50;4.90;;;11.60;95.00;;;;;;4947673;28;20035;-68
2021/09/17 05:29:08;;;;;;;6.63;4.07;;;11.60;95.00;;;;;;4966558;28;20027;-69
2021/09/17 05:31:34;;;;;;;6.32;3.80;;;11.70;94.90;;;;;;4945333;28;20044;-69
2021/09/17 05:34:00;;;;;;;6.60;3.67;;;11.60;94.90;;;;;;4951575;28;20047;-69
2021/09/17 05:36:25;;;;;;;7.53;3.95;;;11.60;94.90;;;;;;4950441;28;20019;-69
2021/09/17 05:38:51;;;;;;;9.65;4.20;;;11.70;95.00;;;;;;4948383;28;20042;-69
2021/09/17 05:41:16;;;;;;;6.75;3.92;;;11.70;95.00;;;;;;4965081;28;20031;-69
2021/09/17 05:43:42;;;;;;;9.63;4.63;;;11.70;95.00;;;;;;4944253;28;20087;-69
2021/09/17 05:46:08;;;;;;;7.03;3.80;;;11.70;94.90;;;;;;4946832;28;20039;-70
2021/09/17 05:48:33;;;;;;;5.88;3.80;;;11.80;95.00;;;;;;4944425;29;20042;-69
2021/09/17 05:50:59;;;;;;;7.65;4.15;;;11.80;95.10;;;;;;4946935;28;20118;-69
2021/09/17 05:53:24;;;;;;;6.90;4.20;;;11.80;95.20;;;;;;4943258;28;20110;-69
2021/09/17 05:55:50;;;;;;;6.07;3.92;;;11.80;95.10;;;;;;4944036;28;20032;-69
2021/09/17 05:58:16;;;;;;;7.30;3.65;;;11.80;95.20;;;;;;4946790;28;20035;-68
2021/09/17 06:00:41;;;;;;;6.88;4.63;;;11.90;95.20;;;;;;4938763;28;20099;-69
2021/09/17 06:03:07;;;;;;;10.13;4.82;;;11.90;95.30;;;;;;4944192;28;20481;-69
2021/09/17 06:05:32;;;;;;;10.10;4.63;;;11.90;95.30;;;;;;4944821;28;20035;-69
2021/09/17 06:07:58;;;;;;;6.10;4.28;;;12.00;95.20;;;;;;4941247;29;20046;-68
2021/09/17 06:10:24;;;;;;;9.00;4.95;;;12.00;95.30;;;;;;4963409;28;20049;-69
2021/09/17 06:12:49;;;;;;;8.80;4.78;;;12.00;95.40;;;;;;4941860;28;20666;-68
2021/09/17 06:15:18;;;;;;;8.77;4.70;;;12.10;95.70;;;;;;4945747;28;20449;-69
2021/09/17 06:17:45;;;;;;;8.85;4.90;;;12.10;95.50;;;;;;4936955;28;20452;-69
2021/09/17 06:20:12;;;;;;;7.30;4.95;;;12.10;95.40;;;;;;4942437;28;20045;-69
2021/09/17 06:22:41;;;;;;;9.05;5.28;;;12.10;95.30;;;;;;4945355;28;20059;-69
2021/09/17 06:25:08;;;;;;;7.88;5.18;;;12.20;95.20;;;;;;4949911;28;20027;-68
2021/09/17 06:27:33;;;;;;;9.02;5.00;;;12.10;95.20;;;;;;4949175;28;20039;-71
2021/09/17 06:29:59;;;;;;;8.13;5.25;;;12.20;95.30;;;;;;4950824;28;20082;-69
2021/09/17 06:32:25;;;;;;;9.77;5.20;;;12.20;95.30;;;;;;4952561;28;20074;-69
2021/09/17 06:34:50;;;;;;;8.65;4.82;;;12.20;95.70;;;;;;4951284;28;20564;-69
2021/09/17 06:37:16;;;;;;;8.55;5.13;;;12.20;95.70;;;;;;4949985;28;20023;-69
2021/09/17 06:39:41;;;;;;;8.90;5.22;;;12.30;95.50;;;;;;4952860;29;20031;-68
2021/09/17 06:42:07;;;;;;;9.32;5.35;;;12.30;95.60;;;;;;4951126;28;20038;-69
2021/09/17 06:44:34;;;;;;;8.88;4.80;;;12.30;95.60;;;;;;4966457;28;20039;-69
2021/09/17 06:46:59;;;;;;;7.90;5.03;;;12.40;95.50;;;;;;4949871;28;20090;-69
2021/09/17 06:49:26;;;;;;;9.85;4.68;;;12.40;95.40;;;;;;4951053;28;20031;-69
2021/09/17 06:51:52;;;;;;;9.80;5.75;;;12.50;95.70;;;;;;4950259;29;20085;-69
2021/09/17 06:54:18;;;;;;;10.18;5.50;;;12.50;95.80;;;;;;4949849;28;20476;-69
2021/09/17 06:56:43;;;;;;;9.07;4.78;;;12.50;95.50;;;;;;4961149;28;20087;-70
2021/09/17 06:59:09;;;;;;;7.07;4.93;;;12.50;95.50;;;;;;4951232;28;20033;-70
2021/09/17 07:01:34;;;;;;;7.47;5.03;;;12.50;95.60;;;;;;4952187;28;20130;-70
2021/09/17 07:04:00;;;;;;;8.52;4.82;;;12.60;95.70;;;;;;4951313;28;20556;-70
2021/09/17 07:06:26;;;;;;;9.93;5.65;;;12.70;95.70;;;;;;4958143;28;20033;-70
2021/09/17 07:08:52;;;;;;;8.13;4.90;;;12.70;95.60;;;;;;4952808;28;20039;-70
2021/09/17 07:11:18;;;;;;;9.93;5.18;;;12.70;95.20;;;;;;4953106;28;20031;-70
2021/09/17 07:13:43;;;;;;;9.23;5.25;;;12.70;95.30;;;;;;4951762;28;20034;-69
2021/09/17 07:16:09;;;;;;;8.23;5.22;;;12.70;95.30;;;;;;4948551;28;20404;-69
2021/09/17 07:18:34;;;;;;;8.23;5.15;;;12.80;95.30;;;;;;4967719;28;20027;-69
2021/09/17 07:21:01;;;;;;;8.80;5.53;;;12.80;95.50;;;;;;4955077;28;20034;-69
2021/09/17 07:23:27;;;;;;;9.43;5.65;;;12.90;95.60;;;;;;4950642;28;20146;-68
2021/09/17 07:25:53;;;;;;;10.93;5.50;;;12.90;96.00;;;;;;4951750;28;20551;-69
2021/09/17 07:28:18;;;;;;;8.88;5.28;;;13.00;95.70;;;;;;4949101;28;20503;-69
2021/09/17 07:30:44;;;;;;;9.13;5.30;;;13.00;95.80;;;;;;4952453;28;20036;-69
2021/09/17 07:33:10;;;;;;;9.27;5.25;;;13.00;95.40;;;;;;4951166;28;20058;-70
2021/09/17 07:35:35;;;;;;;10.70;5.82;;;13.10;95.20;;;;;;4951921;28;20039;-69
2021/09/17 07:38:01;;;;;;;10.38;5.82;;;13.10;95.40;;;;;;4950886;28;20059;-69
2021/09/17 07:40:28;;;;;;;9.82;5.32;;;13.10;95.20;;;;;;4950779;28;20082;-69
2021/09/17 07:42:54;;;;;;;8.55;5.28;;;13.20;95.00;;;;;;4951341;28;20027;-68
2021/09/17 07:45:21;;;;;;;9.82;5.53;;;13.20;95.40;;;;;;4949991;28;20024;-69
2021/09/17 07:47:47;;;;;;;13.43;6.13;;;13.20;95.20;;;;;;4949765;28;20077;-69
2021/09/17 07:50:15;;;;;;;9.40;5.85;;;13.30;95.40;;;;;;4950437;28;20085;-68
2021/09/17 07:52:41;;;;;;;11.13;6.03;;;13.40;95.60;;;;;;4951915;28;20034;-69
2021/09/17 07:55:08;;;;;;;10.50;5.55;;;13.40;95.50;;;;;;4953391;28;20027;-68
2021/09/17 07:57:34;;;;;;;9.98;5.30;;;13.50;95.80;;;;;;4949653;28;20041;-70
2021/09/17 07:59:59;;;;;;;10.00;6.45;;;13.60;95.50;;;;;;4949660;28;20098;-69
2021/09/17 08:02:25;;;;;;;29.45;17.80;;;13.60;95.30;;;;;;4949677;28;20035;-69
2021/09/17 08:04:51;;;;;;;12.70;7.28;;;13.60;95.20;;;;;;4949327;28;20118;-70
2021/09/17 08:07:16;;;;;;;11.13;5.95;;;13.70;95.00;;;;;;4963160;28;20405;-69
2021/09/17 08:09:42;;;;;;;11.52;5.97;;;13.70;95.30;;;;;;4950833;28;20477;-69
2021/09/17 08:12:08;;;;;;;11.52;6.35;;;13.80;94.90;;;;;;4967379;28;20089;-70
2021/09/17 08:14:33;;;;;;;10.45;5.53;;;13.80;94.80;;;;;;4950454;28;20420;-70
2021/09/17 08:16:59;;;;;;;9.38;5.68;;;13.90;94.90;;;;;;4961710;28;20043;-70
2021/09/17 08:19:25;;;;;;;8.93;6.07;;;13.90;94.90;;;;;;4950288;29;20432;-70
2021/09/17 08:21:51;;;;;;;11.38;6.43;;;14.00;94.90;;;;;;4949572;28;20043;-70
2021/09/17 08:24:17;;;;;;;11.13;6.63;;;14.00;94.80;;;;;;4948326;28;20076;-70
2021/09/17 08:26:44;;;;;;;12.15;6.05;;;14.10;95.00;;;;;;4948542;28;20035;-70
2021/09/17 08:29:10;;;;;;;11.55;6.18;;;14.10;94.10;;;;;;4952660;28;20035;-70
2021/09/17 08:31:37;;;;;;;11.43;6.22;;;14.10;94.10;;;;;;4952536;28;20531;-70
2021/09/17 08:34:03;;;;;;;10.55;6.38;;;14.10;93.30;;;;;;4951185;28;20024;-70
2021/09/17 08:36:28;;;;;;;12.73;7.10;;;14.20;93.80;;;;;;4949989;28;20027;-70
2021/09/17 08:38:54;;;;;;;13.75;6.53;;;14.20;94.00;;;;;;4948361;28;20023;-70
2021/09/17 08:41:20;;;;;;;10.52;6.38;;;14.30;93.80;;;;;;4946684;28;20447;-71
2021/09/17 08:43:46;;;;;;;10.35;6.35;;;14.40;93.90;;;;;;4949297;28;20039;-70
2021/09/17 08:46:16;;;;;;;9.50;5.90;;;14.40;92.70;;;;;;4950369;28;20023;-70
2021/09/17 08:48:43;;;;;;;9.90;6.50;;;14.40;92.50;;;;;;4948083;28;20143;-70
2021/09/17 08:51:09;;;;;;;11.15;6.38;;;14.40;92.10;;;;;;4950399;29;20023;-71
2021/09/17 08:53:35;;;;;;;11.15;6.80;;;14.40;92.20;;;;;;4950695;29;20031;-70
2021/09/17 08:56:01;;;;;;;8.95;6.40;;;14.40;91.80;;;;;;4951351;29;20101;-71
2021/09/17 08:58:27;;;;;;;10.48;6.63;;;14.40;91.80;;;;;;4949950;28;20489;-70
2021/09/17 09:00:55;;;;;;;11.45;7.35;;;14.50;91.60;;;;;;4948273;28;20038;-70
2021/09/17 09:03:30;;;;;;;12.93;7.13;;;14.50;92.10;;;;;;4948798;28;20035;-70
2021/09/17 09:05:56;;;;;;;10.80;6.72;;;14.60;91.90;;;;;;4950101;28;20118;-70
2021/09/17 09:08:25;;;;;;;12.23;8.07;;;14.60;91.80;;;;;;4951619;28;20034;-69
2021/09/17 09:10:51;;;;;;;13.63;7.78;;;14.70;92.00;;;;;;4949053;28;20049;-69
2021/09/17 09:13:17;;;;;;;12.38;7.75;;;14.80;92.00;;;;;;4946493;28;20469;-69
2021/09/17 09:15:43;;;;;;;9.73;6.70;;;14.80;92.20;;;;;;4947557;28;20086;-69
2021/09/17 09:18:12;;;;;;;10.27;7.03;;;14.90;91.50;;;;;;4950203;28;20102;-70
2021/09/17 09:20:44;;;;;;;11.88;7.05;;;15.00;91.30;;;;;;4954732;28;20027;-69
2021/09/17 09:23:12;;;;;;;10.35;7.53;;;15.00;91.40;;;;;;4949025;28;20062;-70
2021/09/17 09:25:58;;;;;;;10.02;7.40;;;15.10;91.40;;;;;;4950973;28;20035;-70
2021/09/17 09:28:26;;;;;;;11.32;6.88;;;15.10;90.50;;;;;;4946672;29;20151;-70
2021/09/17 09:30:53;;;;;;;11.27;7.53;;;15.10;91.00;;;;;;4947869;28;20130;-71
2021/09/17 09:33:31;;;;;;;13.70;8.10;;;15.10;91.10;;;;;;4956016;28;20437;-70
2021/09/17 09:35:59;;;;;;;13.15;8.02;;;15.10;90.90;;;;;;4949655;28;20028;-71
2021/09/17 09:38:49;;;;;;;11.60;7.82;;;15.20;90.80;;;;;;4947965;28;20366;-70
2021/09/17 09:41:17;;;;;;;13.48;8.55;;;15.20;90.80;;;;;;4939806;28;20078;-71
2021/09/17 09:44:17;;;;;;;17.67;9.70;;;15.30;91.20;;;;;;4947137;28;20493;-70
2021/09/17 09:46:46;;;;;;;13.00;8.15;;;15.40;90.90;;;;;;4944791;28;20040;-70
2021/09/17 09:49:22;;;;;;;12.07;7.88;;;15.40;90.90;;;;;;4949225;29;20058;-70
2021/09/17 09:52:08;;;;;;;11.07;7.97;;;15.40;90.20;;;;;;4965343;28;20042;-70
2021/09/17 09:54:36;;;;;;;13.95;7.72;;;15.50;90.40;;;;;;4962060;28;20031;-70
2021/09/17 09:57:04;;;;;;;13.32;7.80;;;15.50;91.00;;;;;;4952758;28;20035;-70
2021/09/17 09:59:34;;;;;;;14.55;8.25;;;15.50;90.20;;;;;;4953529;28;20059;-70
2021/09/17 10:02:02;;;;;;;10.93;7.85;;;15.50;90.30;;;;;;4952866;28;20047;-70
2021/09/17 10:04:30;;;;;;;13.48;8.05;;;15.60;89.50;;;;;;4953150;28;20366;-70
2021/09/17 10:07:05;;;;;;;12.38;7.32;;;15.60;90.10;;;;;;4954511;28;20032;-70
2021/09/17 10:09:33;;;;;;;10.05;7.03;;;15.70;90.60;;;;;;4965659;28;20031;-70
2021/09/17 10:11:59;;;;;;;8.77;6.70;;;15.70;89.70;;;;;;4951466;28;20039;-71
2021/09/17 10:14:27;;;;;;;10.85;7.10;;;15.70;88.00;;;;;;4951788;28;20035;-70
2021/09/17 10:16:54;;;;;;;11.13;7.18;;;15.70;86.60;;;;;;4950295;28;20023;-70
2021/09/17 10:19:21;;;;;;;8.63;6.20;;;15.80;87.70;;;;;;4966147;28;20027;-70
2021/09/17 10:21:53;;;;;;;8.68;5.95;;;15.90;87.20;;;;;;4953811;28;20035;-70
2021/09/17 10:24:25;;;;;;;9.32;6.07;;;15.90;87.50;;;;;;4965450;28;20039;-71
2021/09/17 10:27:11;;;;;;;7.38;5.80;;;16.00;86.80;;;;;;4952375;28;20480;-70
2021/09/17 10:29:43;;;;;;;8.52;6.10;;;16.10;86.40;;;;;;4944326;28;20032;-71
2021/09/17 10:32:35;;;;;;;7.78;6.00;;;16.10;86.60;;;;;;4951753;28;20042;-70
2021/09/17 10:35:11;;;;;;;8.00;5.38;;;16.20;85.10;;;;;;4949538;29;20027;-70
2021/09/17 10:37:49;;;;;;;8.18;4.93;;;16.30;83.90;;;;;;4952585;29;20115;-70
2021/09/17 10:40:14;;;;;;;8.68;6.15;;;16.20;84.00;;;;;;4950448;29;20632;-71
2021/09/17 10:43:06;;;;;;;7.00;5.72;;;16.30;83.10;;;;;;4950732;28;20035;-70
2021/09/17 10:45:39;;;;;;;8.85;5.43;;;16.40;83.30;;;;;;4967010;28;20035;-70
2021/09/17 10:48:06;;;;;;;7.28;5.57;;;16.30;83.10;;;;;;4950012;28;20046;-71
2021/09/17 10:50:54;;;;;;;6.07;4.65;;;16.40;84.00;;;;;;4967072;28;20035;-71
2021/09/17 10:53:42;;;;;;;7.65;5.15;;;16.40;81.90;;;;;;4951644;28;20449;-69
2021/09/17 10:56:15;;;;;;;5.90;4.80;;;16.50;83.20;;;;;;4946207;29;20386;-70
2021/09/17 10:58:46;;;;;;;5.43;4.10;;;16.60;81.20;;;;;;4949444;28;20031;-70
2021/09/17 11:01:16;;;;;;;4.85;4.35;;;16.70;80.90;;;;;;4945197;28;20035;-70
2021/09/17 11:03:50;;;;;;;4.18;3.75;;;16.70;81.00;;;;;;4952111;28;20031;-70
2021/09/17 11:06:19;;;;;;;5.75;3.50;;;16.70;78.80;;;;;;4965542;28;20023;-70
2021/09/17 11:08:45;;;;;;;3.67;3.35;;;16.70;77.70;;;;;;4964474;28;20058;-71
2021/09/17 11:11:29;;;;;;;4.20;3.60;;;16.60;77.90;;;;;;4950396;28;20031;-71
2021/09/17 11:14:00;;;;;;;5.20;3.47;;;16.60;76.50;;;;;;4946355;29;20066;-71
2021/09/17 11:16:27;;;;;;;6.60;3.67;;;16.60;78.30;;;;;;4963459;28;20027;-68
2021/09/17 11:19:05;;;;;;;4.22;3.30;;;16.60;77.90;;;;;;4953603;28;20059;-69
2021/09/17 11:21:51;;;;;;;3.33;3.03;;;16.70;77.00;;;;;;4950492;29;20035;-69
2021/09/17 11:24:18;;;;;;;5.32;3.45;;;16.60;77.10;;;;;;4951431;28;20109;-69
2021/09/17 11:26:46;;;;;;;4.25;3.42;;;16.60;79.00;;;;;;4952040;28;20034;-69
2021/09/17 11:29:13;;;;;;;;;;;16.60;77.90;;;;;;4952082;28;20082;-70
2021/09/17 11:32:03;;;;;;;2.80;2.50;;;16.70;77.40;;;;;;4951304;28;19922;-70
2021/09/17 11:34:30;;;;;;;4.57;3.55;;;16.70;77.40;;;;;;4948438;28;20035;-70
2021/09/17 11:37:04;;;;;;;3.63;2.95;;;16.70;78.50;;;;;;4950405;28;20059;-69
2021/09/17 11:39:35;;;;;;;4.63;2.80;;;16.80;77.70;;;;;;4950091;28;20188;-69
2021/09/17 11:42:06;;;;;;;3.33;2.08;;;16.80;76.70;;;;;;4948658;29;20035;-69
2021/09/17 11:44:37;;;;;;;1.75;1.65;;;16.80;71.50;;;;;;4964368;28;20042;-69
2021/09/17 11:47:09;;;;;;;2.50;1.73;;;16.80;72.20;;;;;;4949388;28;20106;-69
2021/09/17 11:49:43;;;;;;;1.77;1.63;;;16.70;66.70;;;;;;4946282;28;20094;-69
2021/09/17 11:52:14;;;;;;;2.22;1.75;;;16.70;71.00;;;;;;4966230;28;20042;-69
2021/09/17 11:54:40;;;;;;;2.92;1.85;;;16.80;70.60;;;;;;4965766;28;20121;-70
2021/09/17 11:57:10;;;;;;;3.50;2.70;;;16.70;70.00;;;;;;4952001;28;20122;-69
2021/09/17 11:59:43;;;;;;;2.67;2.47;;;16.70;71.80;;;;;;4948104;28;20039;-69
2021/09/17 12:02:12;;;;;;;5.80;2.53;;;16.80;72.30;;;;;;4946391;28;20043;-69
2021/09/17 12:04:39;;;;;;;3.35;2.50;;;16.80;71.80;;;;;;4947477;28;20106;-69
2021/09/17 12:07:05;;;;;;;3.30;2.20;;;16.80;74.40;;;;;;4950370;28;20042;-70
2021/09/17 12:09:31;;;;;;;2.90;2.60;;;16.90;76.80;;;;;;4951725;28;20027;-69
2021/09/17 12:11:57;;;;;;;4.15;2.92;;;17.00;76.30;;;;;;4948446;28;20054;-70
2021/09/17 12:14:23;;;;;;;3.55;2.88;;;17.00;74.50;;;;;;4950660;28;20027;-70
2021/09/17 12:16:49;;;;;;;4.75;3.00;;;17.10;75.90;;;;;;4948247;29;20114;-69
2021/09/17 12:19:15;;;;;;;3.67;3.17;;;17.10;75.40;;;;;;4944913;28;20122;-68
2021/09/17 12:21:41;;;;;;;6.63;3.60;;;17.00;75.30;;;;;;4948925;28;20042;-69
2021/09/17 12:24:22;;;;;;;4.03;3.13;;;17.10;77.80;;;;;;4949531;29;20133;-69
2021/09/17 12:26:56;;;;;;;2.53;2.33;;;17.00;77.10;;;;;;4951871;29;20039;-68
2021/09/17 12:29:23;;;;;;;2.50;2.30;;;17.10;75.10;;;;;;4953516;28;20086;-68
2021/09/17 12:31:49;;;;;;;3.10;2.55;;;17.10;74.50;;;;;;4950856;28;20035;-69
2021/09/17 12:34:17;;;;;;;2.42;2.22;;;17.10;73.30;;;;;;4949733;28;20023;-69
2021/09/17 12:36:52;;;;;;;2.40;2.20;;;17.10;71.90;;;;;;4968466;28;20122;-70
2021/09/17 12:39:24;;;;;;;2.20;2.00;;;17.10;70.90;;;;;;4947567;28;20042;-69
2021/09/17 12:42:11;;;;;;;1.77;1.67;;;17.00;70.00;;;;;;4948664;28;20062;-69
2021/09/17 12:44:42;;;;;;;2.40;1.88;;;17.00;67.30;;;;;;4953590;28;20408;-69
2021/09/17 12:47:08;;;;;;;2.60;2.40;;;17.00;65.90;;;;;;4949570;28;20031;-69